Time;durP1;ratioP1;P1;durP2;ratioP2;P2;SDS_P1;SDS_P2;PMS_P1;PMS_P2;Temp;Humidity;BMP_temperature;BMP_pressure;BME280_temperature;BME280_humidity;BME280_pressure;Samples;Min_cycle;Max_cycle;Signal;HPM_P1;HPM_P2
2023/08/26 00:02:26;;;;;;;19.25;12.93;;;;;;;-145.63;54.10;39256.97;5026020;28;20033;-70
2023/08/26 00:04:52;;;;;;;18.15;12.90;;;;;;;-145.63;53.78;39241.31;5019137;28;20025;-67
2023/08/26 00:07:17;;;;;;;25.88;14.65;;;;;;;-145.63;54.15;39286.31;5025894;28;20068;-68
2023/08/26 00:09:43;;;;;;;21.23;14.02;;;;;;;-145.63;54.11;39329.34;5026025;28;20040;-68
2023/08/26 00:12:09;;;;;;;19.52;13.27;;;;;;;-145.63;53.96;39309.78;5025963;28;20361;-67
2023/08/26 00:14:35;;;;;;;20.83;13.27;;;;;;;-145.63;54.16;39270.66;5026001;28;20037;-67
2023/08/26 00:17:00;;;;;;;19.42;12.85;;;;;;;-145.63;54.34;39276.53;5030691;28;20018;-67
2023/08/26 00:19:26;;;;;;;22.20;13.50;;;;;;;-145.63;54.47;39270.66;5025947;28;20396;-68
2023/08/26 00:21:52;;;;;;;16.77;12.50;;;;;;;-145.63;54.22;39286.31;5026171;28;20318;-68
2023/08/26 00:24:18;;;;;;;20.23;12.52;;;;;;;-145.63;53.78;39274.56;5026198;28;20100;-68
2023/08/26 00:26:44;;;;;;;19.52;12.18;;;;;;;-145.63;53.96;39313.69;5025783;28;20026;-69
2023/08/26 00:29:09;;;;;;;19.45;12.63;;;;;;;-145.63;53.84;39278.47;5025512;28;20024;-69
2023/08/26 00:31:35;;;;;;;19.10;13.50;;;;;;;-145.63;54.11;39262.84;5025479;28;20028;-68
2023/08/26 00:34:03;;;;;;;20.02;12.88;;;;;;;-145.63;54.03;39290.22;5030926;28;20034;-68
2023/08/26 00:36:30;;;;;;;19.75;13.00;;;;;;;-145.63;54.32;39266.75;5029646;28;20187;-68
2023/08/26 00:38:57;;;;;;;19.92;12.75;;;;;;;-145.63;54.61;39258.94;5025643;28;20026;-69
2023/08/26 00:41:23;;;;;;;22.85;12.63;;;;;;;-145.63;53.75;39266.75;5025259;28;20172;-68
2023/08/26 00:43:48;;;;;;;19.85;13.80;;;;;;;-145.63;54.21;39243.28;5025330;28;20036;-68
2023/08/26 00:46:14;;;;;;;20.52;12.93;;;;;;;-145.63;54.09;39282.41;5025406;28;20036;-68
2023/08/26 00:48:40;;;;;;;16.67;12.88;;;;;;;-145.63;54.30;39268.72;5025190;28;20061;-68
2023/08/26 00:51:06;;;;;;;18.88;11.85;;;;;;;-145.63;53.86;39258.94;5025416;28;20100;-69
2023/08/26 00:53:33;;;;;;;18.88;11.30;;;;;;;-145.63;53.43;39278.47;5025091;28;20029;-69
2023/08/26 00:55:59;;;;;;;15.30;10.85;;;;;;;-145.63;53.86;39256.97;5024039;28;20034;-68
2023/08/26 00:58:26;;;;;;;16.98;10.95;;;;;;;-145.63;54.25;39303.91;5024894;28;20026;-68
2023/08/26 01:00:52;;;;;;;15.57;10.32;;;;;;;-145.63;54.15;39272.63;5024984;28;20026;-68
2023/08/26 01:03:18;;;;;;;18.25;11.65;;;;;;;-145.63;53.97;39300.00;5025029;28;20024;-68
2023/08/26 01:05:44;;;;;;;15.82;10.60;;;;;;;-145.63;54.52;39309.78;5024973;28;20022;-68
2023/08/26 01:08:10;;;;;;;15.15;11.50;;;;;;;-145.63;53.94;39280.44;5024813;28;20199;-69
2023/08/26 01:10:48;;;;;;;14.90;10.27;;;;;;;-145.63;54.26;39301.94;5024927;28;20026;-68
2023/08/26 01:13:15;;;;;;;16.63;11.48;;;;;;;-145.63;54.70;39227.63;5024611;28;20076;-67
2023/08/26 01:15:46;;;;;;;17.52;11.00;;;;;;;-145.63;54.36;39294.13;5024289;28;20068;-67
2023/08/26 01:18:13;;;;;;;15.20;11.00;;;;;;;-145.63;54.28;39343.03;5024954;28;20179;-67
2023/08/26 01:20:41;;;;;;;18.50;11.32;;;;;;;-145.63;54.21;39343.03;5024698;28;20025;-67
2023/08/26 01:23:14;;;;;;;15.65;10.75;;;;;;;-145.63;54.48;39344.97;5024236;28;20069;-67
2023/08/26 01:25:40;;;;;;;16.83;10.75;;;;;;;-145.63;53.75;39292.19;5024479;28;20304;-67
2023/08/26 01:28:05;;;;;;;14.90;9.80;;;;;;;-145.63;54.44;39284.34;5037357;28;20041;-67
2023/08/26 01:30:32;;;;;;;16.27;10.65;;;;;;;-145.63;53.83;39303.91;5031522;28;20041;-68
2023/08/26 01:33:18;;;;;;;15.07;10.23;;;;;;;-145.63;54.97;39282.41;5030319;28;20025;-67
2023/08/26 01:35:47;;;;;;;15.90;10.35;;;;;;;-145.63;54.40;39270.66;5032188;28;20100;-66
2023/08/26 01:38:16;;;;;;;11.90;9.40;;;;;;;-145.63;54.99;39292.19;5022156;28;20030;-68
2023/08/26 01:40:50;;;;;;;13.15;10.20;;;;;;;-145.63;54.17;39288.25;5022023;28;20392;-68
2023/08/26 01:43:16;;;;;;;13.57;8.73;;;;;;;-145.63;54.81;39258.94;5024388;28;20052;-67
2023/08/26 01:45:42;;;;;;;12.57;9.45;;;;;;;-145.63;54.52;39303.91;5036199;28;20091;-67
2023/08/26 01:48:07;;;;;;;11.57;8.40;;;;;;;-145.63;54.63;39303.91;5035314;28;20352;-67
2023/08/26 01:50:33;;;;;;;12.23;8.60;;;;;;;-145.63;54.57;39317.59;5024200;28;20026;-67
2023/08/26 01:52:59;;;;;;;11.57;8.30;;;;;;;-145.63;54.23;39288.25;5024148;28;20215;-67
2023/08/26 01:55:24;;;;;;;10.10;7.63;;;;;;;-145.63;54.88;39313.69;5023894;28;20040;-67
2023/08/26 01:57:50;;;;;;;14.70;8.18;;;;;;;-145.63;54.80;39325.41;5024096;28;20044;-67
2023/08/26 02:00:16;;;;;;;12.10;8.25;;;;;;;-145.63;54.20;39301.94;5024006;28;20026;-67
2023/08/26 02:02:42;;;;;;;10.35;7.22;;;;;;;-145.63;54.25;39292.19;5023856;28;20041;-67
2023/08/26 02:05:08;;;;;;;12.82;8.23;;;;;;;-145.63;53.73;39290.22;5023864;28;20022;-69
2023/08/26 02:07:34;;;;;;;13.00;8.55;;;;;;;-145.63;53.97;39305.88;5022625;28;20025;-69
2023/08/26 02:10:00;;;;;;;13.65;7.88;;;;;;;-145.63;53.74;39321.50;5023748;28;20010;-67
2023/08/26 02:12:25;;;;;;;9.68;7.75;;;;;;;-145.63;53.54;39282.41;5023706;28;20034;-68
2023/08/26 02:14:51;;;;;;;10.68;7.53;;;;;;;-145.63;54.28;39309.78;5023434;28;20225;-68
2023/08/26 02:17:16;;;;;;;9.95;8.07;;;;;;;-145.63;54.12;39317.59;5023519;28;20217;-68
2023/08/26 02:19:42;;;;;;;12.90;8.45;;;;;;;-145.63;53.73;39296.09;5023590;28;20033;-68
2023/08/26 02:22:08;;;;;;;9.15;7.28;;;;;;;-145.63;53.71;39290.22;5032645;28;20083;-69
2023/08/26 02:24:34;;;;;;;10.30;8.13;;;;;;;-145.63;53.86;39290.22;5025852;28;20267;-67
2023/08/26 02:27:00;;;;;;;11.57;8.30;;;;;;;-145.63;53.85;39063.34;5026238;28;20089;-68
2023/08/26 02:29:26;;;;;;;10.43;8.07;;;;;;;-145.63;54.19;39321.50;5023378;28;20060;-68
2023/08/26 02:31:51;;;;;;;15.18;8.68;;;;;;;-145.63;54.15;39313.69;5023836;28;20022;-68
2023/08/26 02:34:17;;;;;;;14.23;8.02;;;;;;;-145.63;54.21;39311.72;5021340;28;20031;-67
2023/08/26 02:36:42;;;;;;;10.75;7.88;;;;;;;-145.63;54.53;39341.06;5021420;28;20022;-67
2023/08/26 02:39:08;;;;;;;13.52;8.57;;;;;;;-145.63;54.43;39294.13;5023193;28;20026;-68
2023/08/26 02:41:34;;;;;;;14.20;10.15;;;;;;;-145.63;54.23;39325.41;5023315;28;20049;-69
2023/08/26 02:44:00;;;;;;;10.88;7.97;;;;;;;-145.63;54.14;39311.72;5022244;28;20017;-68
2023/08/26 02:46:26;;;;;;;11.75;8.82;;;;;;;-145.63;54.21;39303.91;5023275;28;20092;-69
2023/08/26 02:48:51;;;;;;;13.43;9.23;;;;;;;-145.63;54.17;39294.13;5022595;28;20022;-68
2023/08/26 02:51:17;;;;;;;16.65;9.90;;;;;;;-145.63;54.70;39309.78;5023075;28;20179;-69
2023/08/26 02:53:43;;;;;;;14.68;8.80;;;;;;;-145.63;54.28;39282.41;5022016;28;20392;-68
2023/08/26 02:56:08;;;;;;;12.52;8.32;;;;;;;-145.63;54.40;39348.88;5023279;28;20034;-68
2023/08/26 02:58:34;;;;;;;11.00;8.05;;;;;;;-145.63;54.44;39307.81;5022968;28;20072;-69
2023/08/26 03:01:01;;;;;;;11.63;8.38;;;;;;;-145.63;54.55;39307.81;5023291;28;20026;-69
2023/08/26 03:03:27;;;;;;;11.73;8.60;;;;;;;-145.63;54.37;39301.94;5023069;28;20033;-68
2023/08/26 03:05:57;;;;;;;12.93;8.70;;;;;;;-145.63;54.84;39317.59;5023062;28;20034;-68
2023/08/26 03:08:23;;;;;;;9.75;8.32;;;;;;;-145.63;54.61;39309.78;5023139;28;20037;-68
2023/08/26 03:11:00;;;;;;;11.50;8.25;;;;;;;-145.63;54.60;38985.13;5023005;28;20024;-68
2023/08/26 03:13:26;;;;;;;12.32;8.18;;;;;;;-145.63;54.66;39321.50;5023069;28;20038;-68
2023/08/26 03:15:51;;;;;;;12.20;8.23;;;;;;;-145.63;54.93;39300.00;5029360;28;20080;-68
2023/08/26 03:18:17;;;;;;;11.70;9.20;;;;;;;-145.63;54.57;39286.31;5034697;28;20037;-68
2023/08/26 03:20:43;;;;;;;12.40;9.27;;;;;;;-145.63;54.85;39282.41;5021938;28;20025;-67
2023/08/26 03:23:08;;;;;;;13.00;9.50;;;;;;;-145.63;55.07;39311.72;5022790;28;20042;-68
2023/08/26 03:25:43;;;;;;;12.10;8.75;;;;;;;-145.63;55.03;39307.81;5023133;28;20030;-67
2023/08/26 03:28:08;;;;;;;9.70;8.10;;;;;;;-145.63;54.72;39288.25;5022740;28;20028;-68
2023/08/26 03:30:35;;;;;;;14.18;9.38;;;;;;;-145.63;55.03;39321.50;5023035;28;20100;-69
2023/08/26 03:33:01;;;;;;;10.65;8.93;;;;;;;-145.63;54.75;39296.09;5031224;28;20025;-67
2023/08/26 03:35:27;;;;;;;9.80;7.82;;;;;;;-145.63;54.86;39245.25;5035203;28;20698;-67
2023/08/26 03:37:53;;;;;;;10.35;7.93;;;;;;;-145.63;54.53;39235.47;5031016;28;20033;-69
2023/08/26 03:40:22;;;;;;;12.73;8.10;;;;;;;-145.63;54.17;39249.16;5020699;28;20076;-68
2023/08/26 03:42:51;;;;;;;12.65;8.10;;;;;;;-145.63;54.49;39266.75;5023602;28;20030;-68
2023/08/26 03:45:17;;;;;;;11.82;8.60;;;;;;;-145.63;54.82;39286.31;5023190;28;20180;-68
2023/08/26 03:47:43;;;;;;;12.10;8.95;;;;;;;-145.63;54.48;39262.84;5024727;28;20050;-68
2023/08/26 03:50:10;;;;;;;11.95;9.20;;;;;;;-145.63;54.48;39184.59;5023454;28;20027;-68
2023/08/26 03:52:36;;;;;;;13.23;9.20;;;;;;;-145.63;54.88;39255.00;5021488;28;20064;-68
2023/08/26 03:55:02;;;;;;;14.20;9.75;;;;;;;-145.63;54.46;39247.19;5024776;28;20033;-68
2023/08/26 03:57:31;;;;;;;13.60;9.00;;;;;;;-145.63;54.29;39266.75;5011419;28;20056;-68
2023/08/26 03:59:58;;;;;;;13.10;9.00;;;;;;;-145.63;54.63;39235.47;5026592;28;20034;-68
2023/08/26 04:02:24;;;;;;;12.18;9.35;;;;;;;-145.63;54.54;39256.97;5026434;28;20040;-68
2023/08/26 04:04:50;;;;;;;15.85;10.65;;;;;;;-145.63;54.79;39223.72;5026399;28;20094;-68
2023/08/26 04:07:15;;;;;;;15.25;10.60;;;;;;;-145.63;54.45;39223.72;5025784;28;20025;-68
2023/08/26 04:09:42;;;;;;;16.10;10.60;;;;;;;-145.63;54.63;39239.38;5026243;28;20030;-66
2023/08/26 04:12:08;;;;;;;18.95;11.93;;;;;;;-145.63;54.97;39223.72;5026722;28;20080;-68
2023/08/26 04:14:33;;;;;;;28.25;15.60;;;;;;;-145.63;54.23;39235.47;5026201;28;20319;-66
2023/08/26 04:16:59;;;;;;;20.30;11.48;;;;;;;-145.63;53.86;39219.81;5026442;28;20029;-68
2023/08/26 04:19:25;;;;;;;32.85;15.00;;;;;;;-145.63;53.73;39233.50;5025756;28;20029;-68
2023/08/26 04:21:51;;;;;;;19.42;12.00;;;;;;;-145.63;54.31;39208.06;5026120;28;20053;-68
2023/08/26 04:24:17;;;;;;;23.63;14.20;;;;;;;-145.63;53.90;39204.16;5026994;28;20045;-68
2023/08/26 04:26:42;;;;;;;24.08;15.20;;;;;;;-145.63;54.18;39196.34;5028401;28;20033;-69
2023/08/26 04:29:08;;;;;;;23.23;14.65;;;;;;;-145.63;54.25;39168.97;5025447;28;20034;-69
2023/08/26 04:31:34;;;;;;;31.60;15.70;;;;;;;-145.63;53.78;39194.38;5030981;28;20021;-68
2023/08/26 04:33:59;;;;;;;26.83;15.27;;;;;;;-145.63;53.80;39176.78;5027722;28;20037;-69
2023/08/26 04:36:25;;;;;;;24.48;15.50;;;;;;;-145.63;52.46;39192.44;5036146;28;20044;-68
2023/08/26 04:38:51;;;;;;;23.58;15.73;;;;;;;-145.63;52.13;39190.47;5026369;28;20050;-68
2023/08/26 04:41:17;;;;;;;30.05;15.43;;;;;;;-145.63;51.08;39163.09;5026137;28;20317;-67
2023/08/26 04:43:43;;;;;;;21.40;14.35;;;;;;;-145.63;50.59;39210.03;5027192;28;20212;-68
2023/08/26 04:46:09;;;;;;;24.55;13.30;;;;;;;-145.63;51.08;39161.13;5025303;28;20030;-68
2023/08/26 04:48:34;;;;;;;19.67;13.68;;;;;;;-145.63;51.14;39165.06;5025457;28;20361;-70
2023/08/26 04:51:00;;;;;;;25.40;14.25;;;;;;;-145.63;51.24;39159.19;5023993;28;20041;-68
2023/08/26 04:53:26;;;;;;;25.52;15.07;;;;;;;-145.63;50.96;39137.69;5038175;28;20100;-69
2023/08/26 04:55:52;;;;;;;25.73;14.57;;;;;;;-145.63;51.47;39165.06;5024897;28;20025;-69
2023/08/26 04:58:18;;;;;;;25.75;13.40;;;;;;;-145.63;51.77;39141.59;5024973;28;20259;-69
2023/08/26 05:00:47;;;;;;;24.45;14.75;;;;;;;-145.63;50.86;39137.69;5026252;28;20026;-68
2023/08/26 05:03:12;;;;;;;21.63;13.32;;;;;;;-145.63;51.20;39135.72;5024904;28;20032;-70
2023/08/26 05:05:42;;;;;;;25.08;13.75;;;;;;;-145.63;50.27;39079.00;5027643;28;20211;-69
2023/08/26 05:08:09;;;;;;;25.13;14.85;;;;;;;-145.63;50.02;39108.34;5024941;28;20076;-68
2023/08/26 05:10:36;;;;;;;23.45;13.55;;;;;;;-145.63;50.15;39139.63;5025391;28;20087;-68
2023/08/26 05:13:03;;;;;;;22.30;13.57;;;;;;;-145.63;50.00;39032.06;5024888;28;20026;-68
2023/08/26 05:15:29;;;;;;;18.73;12.00;;;;;;;-145.63;49.08;39079.00;5024255;28;20400;-68
2023/08/26 05:17:56;;;;;;;19.00;12.77;;;;;;;-145.63;48.45;39069.22;5025024;28;20083;-68
2023/08/26 05:20:21;;;;;;;22.08;12.48;;;;;;;-145.63;47.87;39047.72;5024591;28;20026;-67
2023/08/26 05:22:47;;;;;;;23.70;11.75;;;;;;;-145.63;47.33;39014.47;5024559;28;20249;-69
2023/08/26 05:25:13;;;;;;;15.40;11.30;;;;;;;-145.63;47.50;39022.28;5024460;28;20044;-69
2023/08/26 05:27:39;;;;;;;20.60;11.38;;;;;;;-145.63;47.44;38998.81;5024150;28;20029;-68
2023/08/26 05:30:05;;;;;;;26.85;11.38;;;;;;;-145.63;47.57;39008.59;5024455;28;20034;-69
2023/08/26 05:32:31;;;;;;;15.80;9.63;;;;;;;-145.63;46.71;39026.19;5026840;28;20025;-68
2023/08/26 05:34:57;;;;;;;14.27;9.32;;;;;;;-145.63;46.88;39026.19;5037578;28;20088;-68
2023/08/26 05:37:22;;;;;;;12.95;7.70;;;;;;;-145.63;45.86;38989.03;5031491;28;20326;-68
2023/08/26 05:39:48;;;;;;;17.80;8.75;;;;;;;-145.63;45.32;38947.97;5025899;28;21340;-68
2023/08/26 05:42:14;;;;;;;12.43;7.18;;;;;;;-145.63;45.07;38981.22;5032051;28;20036;-69
2023/08/26 05:44:39;;;;;;;15.05;7.82;;;;;;;-145.63;44.86;38998.81;5035238;28;20332;-69
2023/08/26 05:47:05;;;;;;;10.80;6.88;;;;;;;-145.63;44.16;38965.56;5027288;28;20077;-69
2023/08/26 05:49:31;;;;;;;11.45;6.05;;;;;;;-145.63;44.59;38967.53;5016258;28;20222;-69
2023/08/26 05:51:56;;;;;;;8.00;6.15;;;;;;;-145.63;44.16;38953.84;5023066;28;20026;-68
2023/08/26 05:54:22;;;;;;;11.40;6.30;;;;;;;-145.63;43.54;38953.84;5028751;28;20034;-68
2023/08/26 05:56:48;;;;;;;9.27;6.15;;;;;;;-145.63;43.09;38942.13;5020216;28;20044;-68
2023/08/26 05:59:13;;;;;;;7.13;5.28;;;;;;;-145.63;43.14;38934.28;4999849;28;20462;-69
2023/08/26 06:01:39;;;;;;;9.10;5.47;;;;;;;-145.63;41.94;38924.50;5024821;28;20072;-68
2023/08/26 06:04:06;;;;;;;6.90;4.85;;;;;;;-145.63;42.06;38942.13;5024435;28;20033;-68
2023/08/26 06:06:33;;;;;;;12.52;5.47;;;;;;;-145.63;42.30;38930.38;5017088;28;20034;-67
2023/08/26 06:08:58;;;;;;;7.97;5.85;;;;;;;-145.63;42.61;38938.19;5026088;28;20273;-68
2023/08/26 06:11:24;;;;;;;11.50;8.38;;;;;;;-145.63;42.00;38930.38;5023248;28;20299;-68
2023/08/26 06:13:50;;;;;;;9.50;5.00;;;;;;;-145.63;41.56;38942.13;5017109;28;20029;-68
2023/08/26 06:16:19;;;;;;;7.20;4.68;;;;;;;-145.63;41.73;38938.19;5017404;28;20080;-68
2023/08/26 06:18:48;;;;;;;5.40;4.47;;;;;;;-145.63;41.84;38906.91;5017999;28;20064;-68
2023/08/26 06:21:15;;;;;;;5.63;4.00;;;;;;;-145.63;41.23;38922.56;5023332;28;20045;-67
2023/08/26 06:23:41;;;;;;;9.45;5.60;;;;;;;-145.63;41.25;38944.06;5015509;28;20034;-68
2023/08/26 06:26:06;;;;;;;5.25;4.10;;;;;;;-145.63;41.00;38946.03;5022353;28;20033;-68
2023/08/26 06:28:32;;;;;;;10.05;5.10;;;;;;;-145.63;40.67;38967.53;5017662;28;20017;-68
2023/08/26 06:30:59;;;;;;;6.20;4.00;;;;;;;-145.63;41.00;38891.28;5018224;28;20021;-69
2023/08/26 06:33:25;;;;;;;11.35;5.03;;;;;;;-145.63;41.06;38887.34;5021712;28;20065;-68
2023/08/26 06:35:51;;;;;;;5.60;4.00;;;;;;;-145.63;39.90;38861.94;5023095;28;20034;-74
2023/08/26 06:38:17;;;;;;;6.72;3.90;;;;;;;-145.63;40.43;38863.88;5018771;28;20041;-69
2023/08/26 06:40:43;;;;;;;6.20;3.88;;;;;;;-145.63;40.45;38863.88;5016021;28;20050;-69
2023/08/26 06:43:09;;;;;;;5.65;4.07;;;;;;;-145.63;40.15;38904.97;5017529;28;20030;-70
2023/08/26 06:45:34;;;;;;;7.43;4.30;;;;;;;-145.63;39.52;38836.50;5023414;28;20360;-69
2023/08/26 06:48:00;;;;;;;7.75;3.60;;;;;;;-145.63;39.68;38830.66;5023255;28;20033;-70
2023/08/26 06:50:26;;;;;;;8.27;3.95;;;;;;;-145.63;39.85;38859.97;5005381;28;20179;-69
2023/08/26 06:52:52;;;;;;;6.57;4.00;;;;;;;-145.63;39.73;38789.59;5015451;28;20295;-69
2023/08/26 06:55:18;;;;;;;5.85;3.80;;;;;;;-145.63;39.37;38809.13;5016668;28;20026;-69
2023/08/26 06:57:45;;;;;;;7.32;4.35;;;;;;;-145.63;39.26;38768.06;5014926;28;20026;-70
2023/08/26 07:00:12;;;;;;;10.43;4.03;;;;;;;-145.63;40.07;38805.22;5017434;28;20057;-71
2023/08/26 07:02:38;;;;;;;4.47;3.40;;;;;;;-145.63;38.78;38795.44;5024852;28;20025;-69
2023/08/26 07:05:04;;;;;;;9.20;3.55;;;;;;;-145.63;38.69;38816.97;5025835;28;20209;-67
2023/08/26 07:07:30;;;;;;;6.32;3.17;;;;;;;-145.63;38.82;38807.19;5017871;28;20038;-70
2023/08/26 07:09:56;;;;;;;6.07;3.35;;;;;;;-145.63;39.10;38807.19;5018769;28;20057;-68
2023/08/26 07:12:22;;;;;;;7.28;4.05;;;;;;;-145.63;38.56;38766.13;5017077;28;20029;-69
2023/08/26 07:14:47;;;;;;;9.18;4.00;;;;;;;-145.63;37.63;38770.03;5019449;28;20144;-69
2023/08/26 07:17:15;;;;;;;12.98;9.43;;;;;;;-145.63;38.15;38727.00;5027425;28;20041;-69
2023/08/26 07:19:41;;;;;;;4.95;3.88;;;;;;;-145.63;38.56;38750.47;5023382;28;20036;-69
2023/08/26 07:22:07;;;;;;;7.43;3.80;;;;;;;-145.63;38.82;38089.56;5018429;28;20105;-68
2023/08/26 07:24:33;;;;;;;5.25;3.47;;;;;;;-145.63;38.23;38725.06;5018655;28;20057;-70
2023/08/26 07:26:59;;;;;;;5.00;3.65;;;;;;;-145.63;37.25;38756.34;5032364;28;20164;-69
2023/08/26 07:29:24;;;;;;;4.25;3.45;;;;;;;-145.63;36.02;38783.72;5018931;28;20076;-69
2023/08/26 07:31:50;;;;;;;6.13;3.03;;;;;;;-145.63;37.10;38762.22;5024020;28;20033;-69
2023/08/26 07:34:16;;;;;;;6.93;3.25;;;;;;;-145.63;37.40;38746.56;5032155;28;20040;-69
2023/08/26 07:36:41;;;;;;;6.00;3.10;;;;;;;-145.63;37.65;38758.28;5031425;28;20266;-69
2023/08/26 07:39:08;;;;;;;7.40;3.00;;;;;;;-145.63;36.88;38809.13;5034733;28;20026;-70
2023/08/26 07:41:35;;;;;;;8.57;2.97;;;;;;;-145.63;35.58;38789.59;5029140;28;20104;-69
2023/08/26 07:44:03;;;;;;;8.13;3.25;;;;;;;-145.63;37.44;38590.13;5025733;28;20030;-69
2023/08/26 07:46:28;;;;;;;5.53;2.90;;;;;;;-145.63;37.07;38770.03;5024965;28;20076;-68
2023/08/26 07:48:54;;;;;;;4.00;2.78;;;;;;;-145.63;35.96;38787.63;5025106;28;20025;-69
2023/08/26 07:51:20;;;;;;;6.38;2.63;;;;;;;-145.63;37.21;38779.81;5025016;28;20401;-69
2023/08/26 07:53:46;;;;;;;5.07;2.88;;;;;;;-145.63;35.92;38797.41;5026213;28;20029;-69
2023/08/26 07:56:11;;;;;;;5.72;2.72;;;;;;;-145.63;36.49;38797.41;5026159;28;20093;-70
2023/08/26 07:58:37;;;;;;;10.98;3.40;;;;;;;-145.63;37.67;38801.31;5024854;28;20025;-70
2023/08/26 08:01:02;;;;;;;6.35;2.95;;;;;;;-145.63;37.48;38768.06;5026355;28;20071;-69
2023/08/26 08:03:28;;;;;;;10.43;3.90;;;;;;;-145.63;37.21;38803.28;5026750;28;20041;-70
2023/08/26 08:05:54;;;;;;;13.05;3.92;;;;;;;-145.63;37.35;38785.66;5036191;28;20021;-70
2023/08/26 08:08:19;;;;;;;6.55;3.03;;;;;;;-145.63;37.85;38770.03;5035020;28;20034;-69
2023/08/26 08:10:45;;;;;;;7.45;3.47;;;;;;;-145.63;38.27;38799.34;5025396;28;20048;-66
2023/08/26 08:13:11;;;;;;;5.45;3.10;;;;;;;-145.63;36.04;38809.13;5018567;28;20072;-68
2023/08/26 08:15:37;;;;;;;4.82;2.70;;;;;;;-145.63;36.33;38764.16;5032735;28;20033;-68
2023/08/26 08:18:02;;;;;;;7.50;3.15;;;;;;;-145.63;36.33;38783.72;5025787;28;20065;-67
2023/08/26 08:20:31;;;;;;;9.80;3.22;;;;;;;-145.63;36.72;38781.75;5019071;28;20838;-67
2023/08/26 08:22:57;;;;;;;3.30;2.45;;;;;;;-145.63;36.24;38789.59;5020091;28;20076;-68
2023/08/26 08:25:24;;;;;;;6.90;3.53;;;;;;;-145.63;36.03;38770.03;5022401;28;20038;-67
2023/08/26 08:27:50;;;;;;;4.93;3.08;;;;;;;-145.63;36.89;38727.00;5025699;28;20033;-68
2023/08/26 08:30:16;;;;;;;7.53;3.10;;;;;;;-145.63;36.81;38754.38;5025607;28;20307;-69
2023/08/26 08:32:41;;;;;;;5.78;2.50;;;;;;;-145.63;35.94;38752.44;5027406;28;20294;-68
2023/08/26 08:35:08;;;;;;;6.28;2.30;;;;;;;-145.63;36.19;38777.84;5028568;28;20032;-68
2023/08/26 08:37:34;;;;;;;6.95;2.67;;;;;;;-145.63;35.30;38801.31;5027274;28;20112;-70
2023/08/26 08:40:00;;;;;;;4.85;2.65;;;;;;;-145.63;36.24;38590.13;5027839;28;20026;-69
2023/08/26 08:42:26;;;;;;;5.47;2.60;;;;;;;-145.63;36.97;38789.59;5023195;28;20025;-68
2023/08/26 08:44:52;;;;;;;6.43;2.40;;;;;;;-145.63;36.27;38785.66;5025116;28;20136;-69
2023/08/26 08:47:18;;;;;;;3.30;2.70;;;;;;;-145.63;36.39;38813.03;5025482;28;20018;-68
2023/08/26 08:49:45;;;;;;;6.13;2.35;;;;;;;-145.63;36.46;38777.84;5020856;28;20065;-69
2023/08/26 08:52:11;;;;;;;4.78;2.67;;;;;;;-145.63;35.60;38781.75;5019170;28;20038;-69
2023/08/26 08:54:37;;;;;;;5.57;2.78;;;;;;;-145.63;36.02;38799.34;5014411;28;20050;-68
2023/08/26 08:57:04;;;;;;;3.47;2.15;;;;;;;-145.63;36.37;38813.03;5024159;28;20294;-68
2023/08/26 08:59:35;;;;;;;6.07;2.38;;;;;;;-145.63;35.72;38867.81;5023914;28;20088;-69
2023/08/26 09:02:03;;;;;;;6.88;2.47;;;;;;;-145.63;36.28;38787.63;5024563;28;20030;-69
2023/08/26 09:04:29;;;;;;;5.47;2.42;;;;;;;-145.63;36.16;38791.53;5026985;28;20029;-67
2023/08/26 09:06:55;;;;;;;3.55;2.38;;;;;;;-145.63;36.21;38848.25;5017803;28;20030;-68
2023/08/26 09:09:22;;;;;;;6.90;2.92;;;;;;;-145.63;35.89;38799.34;5018525;28;20245;-68
2023/08/26 09:11:48;;;;;;;3.72;2.40;;;;;;;-145.63;36.19;38816.97;5021416;28;20302;-66
2023/08/26 09:14:15;;;;;;;4.32;2.58;;;;;;;-145.63;36.40;38809.13;5024705;28;20304;-67
2023/08/26 09:16:41;;;;;;;7.18;3.53;;;;;;;-145.63;36.44;38787.63;5024827;28;20076;-67
2023/08/26 09:19:09;;;;;;;6.53;2.95;;;;;;;-145.63;36.27;38795.44;5024744;28;20409;-67
2023/08/26 09:21:46;;;;;;;3.78;2.63;;;;;;;-145.63;35.97;38813.03;5024659;28;20081;-67
2023/08/26 09:24:13;;;;;;;6.15;2.50;;;;;;;-145.63;36.33;38799.34;5024779;28;20034;-66
2023/08/26 09:26:40;;;;;;;4.97;2.80;;;;;;;-145.63;36.64;38795.44;5023522;28;20029;-66
2023/08/26 09:29:17;;;;;;;6.80;3.00;;;;;;;-145.63;36.82;38758.28;5024064;28;20037;-66
2023/08/26 09:31:47;;;;;;;6.18;2.70;;;;;;;-145.63;37.15;38807.19;5024252;28;20018;-66
2023/08/26 09:34:22;;;;;;;5.28;3.22;;;;;;;-145.63;37.12;38770.03;5034876;28;20028;-66
2023/08/26 09:36:48;;;;;;;6.93;3.65;;;;;;;-145.63;37.48;38777.84;5018514;28;20041;-67
2023/08/26 09:39:15;;;;;;;6.40;3.40;;;;;;;-145.63;37.41;38754.38;5018242;28;20030;-67
2023/08/26 09:41:45;;;;;;;7.75;3.90;;;;;;;-145.63;38.92;38789.59;5019136;28;20030;-66
2023/08/26 09:44:12;;;;;;;6.00;3.15;;;;;;;-145.63;38.08;38770.03;5029840;28;20053;-67
2023/08/26 09:46:39;;;;;;;7.63;3.45;;;;;;;-145.63;37.88;38801.31;5022045;28;20088;-65
2023/08/26 09:49:12;;;;;;;5.38;3.33;;;;;;;-145.63;38.08;38781.75;5024090;28;20294;-66
2023/08/26 09:51:37;;;;;;;5.43;3.22;;;;;;;-145.63;38.72;38787.63;5008593;28;20022;-66
2023/08/26 09:54:05;;;;;;;6.57;3.33;;;;;;;-145.63;38.83;38787.63;5023351;28;20310;-66
2023/08/26 09:56:31;;;;;;;6.35;3.53;;;;;;;-145.63;39.47;38820.88;5019347;28;20057;-67
2023/08/26 09:58:57;;;;;;;7.20;3.10;;;;;;;-145.63;39.71;38783.72;5019392;28;20033;-67
2023/08/26 10:01:24;;;;;;;7.30;3.97;;;;;;;-145.63;41.50;38840.44;5016272;28;20030;-66
2023/08/26 10:03:57;;;;;;;6.63;3.35;;;;;;;-145.63;40.23;38803.28;5021346;28;20088;-67
2023/08/26 10:06:27;;;;;;;6.60;3.30;;;;;;;-145.63;40.27;38781.75;5037190;28;20029;-66
2023/08/26 10:09:05;;;;;;;7.55;3.30;;;;;;;-145.63;40.72;38120.88;5032825;28;20092;-68
2023/08/26 10:11:36;;;;;;;12.57;4.47;;;;;;;-145.63;40.76;38793.50;5024236;28;20041;-69
2023/08/26 10:14:06;;;;;;;6.00;3.00;;;;;;;-145.63;40.17;38766.13;5022406;28;20029;-68
2023/08/26 10:16:33;;;;;;;3.70;2.83;;;;;;;-145.63;40.04;38807.19;5021999;28;20033;-68
2023/08/26 10:19:00;;;;;;;11.70;4.00;;;;;;;-145.63;40.83;38781.75;5023160;28;20347;-70
2023/08/26 10:21:26;;;;;;;14.45;7.30;;;;;;;-145.63;40.81;38805.22;5017900;28;20025;-68
2023/08/26 10:23:51;;;;;;;5.72;3.40;;;;;;;-145.63;40.82;38815.00;5019454;28;20033;-69
2023/08/26 10:26:20;;;;;;;11.80;3.35;;;;;;;-145.63;41.55;38805.22;5025194;28;20048;-69
2023/08/26 10:28:47;;;;;;;8.02;3.28;;;;;;;-145.63;41.02;38815.00;5017435;28;20033;-69
2023/08/26 10:31:14;;;;;;;7.03;2.83;;;;;;;-145.63;40.91;38840.44;5017375;28;20057;-68
2023/08/26 10:34:06;;;;;;;5.60;3.20;;;;;;;-145.63;41.05;38842.38;5027541;28;20028;-68
2023/08/26 10:36:40;;;;;;;5.72;3.20;;;;;;;-145.63;40.76;38850.19;5022912;28;20025;-68
2023/08/26 10:39:15;;;;;;;7.65;3.83;;;;;;;-145.63;40.81;38875.63;5022258;28;20031;-66
2023/08/26 10:42:16;;;;;;;5.90;3.63;;;;;;;-145.63;42.32;38818.91;5022955;28;20025;-65
2023/08/26 10:44:52;;;;;;;10.30;3.90;;;;;;;-145.63;41.74;38859.97;5023857;28;20033;-66
2023/08/26 10:47:38;;;;;;;7.82;3.92;;;;;;;-145.63;43.53;38832.59;5023014;28;20025;-66
2023/08/26 10:50:19;;;;;;;8.98;3.60;;;;;;;-145.63;42.20;38824.78;5010173;28;20026;-66
2023/08/26 10:52:49;;;;;;;4.95;3.17;;;;;;;-145.63;41.75;38859.97;5023470;28;20089;-65
2023/08/26 10:55:23;;;;;;;5.80;3.30;;;;;;;-145.63;41.84;38828.69;5021959;28;20029;-67
2023/08/26 10:58:07;;;;;;;6.32;2.88;;;;;;;-145.63;42.13;38852.16;5005893;28;20234;-67
2023/08/26 11:00:33;;;;;;;4.90;2.60;;;;;;;-145.63;42.00;38867.81;5015182;28;20029;-65
2023/08/26 11:03:01;;;;;;;7.13;3.00;;;;;;;-145.63;42.87;38879.53;5034294;28;20104;-68
2023/08/26 11:05:27;;;;;;;5.10;2.95;;;;;;;-145.63;41.33;38881.50;5025641;28;20021;-67
2023/08/26 11:07:55;;;;;;;3.25;2.70;;;;;;;-145.63;42.31;38844.34;5023116;28;20032;-66
2023/08/26 11:10:28;;;;;;;4.45;2.90;;;;;;;-145.63;42.17;38834.56;5026384;28;20128;-66